Time;durP1;ratioP1;P1;durP2;ratioP2;P2;SDS_P1;SDS_P2;PMS_P1;PMS_P2;Temp;Humidity;BMP_temperature;BMP_pressure;BME280_temperature;BME280_humidity;BME280_pressure;Samples;Min_cycle;Max_cycle;Signal;HPM_P1;HPM_P2
2021/04/22 00:02:32;;;;;;;9.32;5.60;;;;;;;;;;6331286;22;20432;-91
2021/04/22 00:05:12;;;;;;;9.10;5.20;;;;;;;;;;6306112;22;20010;-90
2021/04/22 00:08:00;;;;;;;;;;;;;;;;;;;;;
2021/04/22 00:11:11;;;;;;;;;;;;;;;;;;;;;
2021/04/22 00:14:32;;;;;;;9.77;5.50;;;;;;;;;;6214952;23;20084;-90
2021/04/22 00:17:17;;;;;;;6.95;4.82;;;;;;;;;;6210298;23;20009;-90
2021/04/22 00:20:03;;;;;;;;;;;;;;;;;;;;;
2021/04/22 00:26:03;;;;;;;8.27;5.60;;;;;;;;;;6245283;23;20087;-90
2021/04/22 00:31:47;;;;;;;6.90;4.90;;;;;;;;;;6323874;22;20002;-90
2021/04/22 00:50:06;;;;;;;;;;;;;;;;;;;;;
2021/04/22 01:02:42;;;;;;;7.55;4.93;;;;;;;;;;6066118;23;20343;-91
2021/04/22 01:18:09;;;;;;;;;;;;;;;;;;;;;
2021/04/22 01:23:46;;;;;;;7.43;4.90;;;;;;;;;;6057338;23;20007;-90
2021/04/22 01:26:45;;;;;;;6.95;4.95;;;;;;;;;;6069037;23;20007;-90
2021/04/22 01:29:41;;;;;;;;;;;;;;;;;;;;;
2021/04/22 01:35:29;;;;;;;;;;;;;;;;;;;;;
2021/04/22 01:44:47;;;;;;;10.20;5.53;;;;;;;;;;6311960;22;20118;-90
2021/04/22 01:47:27;;;;;;;;;;;;;;;;;;;;;
2021/04/22 01:50:16;;;;;;;6.93;4.85;;;;;;;;;;6316858;22;20091;-90
2021/04/22 01:56:05;;;;;;;;;;;;;;;;;;;;;
2021/04/22 01:58:44;;;;;;;;;;;;;;;;;;;;;
2021/04/22 02:04:30;;;;;;;;;;;;;;;;;;;;;
2021/04/22 02:07:32;;;;;;;8.80;5.10;;;;;;;;;;6330006;22;20042;-90
2021/04/22 02:25:29;;;;;;;7.97;5.03;;;;;;;;;;6310883;22;20014;-90
2021/04/22 02:37:09;;;;;;;;;;;;;;;;;;;;;
2021/04/22 02:40:08;;;;;;;;;;;;;;;;;;;;;
2021/04/22 02:43:07;;;;;;;;;;;;;;;;;;;;;
2021/04/22 02:48:43;;;;;;;9.52;5.03;;;;;;;;;;6343002;22;20461;-90
2021/04/22 02:51:34;;;;;;;7.35;4.80;;;;;;;;;;6315666;22;20005;-90
2021/04/22 02:57:09;;;;;;;8.35;4.88;;;;;;;;;;6360136;22;19991;-92
2021/04/22 03:03:10;;;;;;;;;;;;;;;;;;;;;
2021/04/22 03:06:10;;;;;;;;;;;;;;;;;;;;;
2021/04/22 03:08:39;;;;;;;7.47;4.95;;;;;;;;;;6367025;22;20007;-92
2021/04/22 03:17:20;;;;;;;7.68;4.70;;;;;;;;;;6345206;22;20042;-92
2021/04/22 03:20:18;;;;;;;;;;;;;;;;;;;;;
2021/04/22 03:23:15;;;;;;;8.05;5.10;;;;;;;;;;6367240;22;19987;-91
2021/04/22 03:28:56;;;;;;;7.30;4.90;;;;;;;;;;6350784;22;20017;-93
2021/04/22 03:35:09;;;;;;;;;;;;;;;;;;;;;
2021/04/22 03:38:19;;;;;;;;;;;;;;;;;;;;;
2021/04/22 03:41:01;;;;;;;7.38;4.80;;;;;;;;;;6363359;22;20013;-93
2021/04/22 03:43:59;;;;;;;6.82;4.60;;;;;;;;;;6338996;22;20007;-94
2021/04/22 03:47:16;;;;;;;;;;;;;;;;;;;;;
2021/04/22 03:49:36;;;;;;;7.18;4.80;;;;;;;;;;6358236;22;20007;-93
2021/04/22 03:52:19;;;;;;;;;;;;;;;;;;;;;
2021/04/22 03:55:06;;;;;;;;;;;;;;;;;;;;;
2021/04/22 03:57:39;;;;;;;9.10;5.32;;;;;;;;;;6358969;22;19998;-89
2021/04/22 04:02:59;;;;;;;6.68;4.47;;;;;;;;;;6281670;22;20436;-90
2021/04/22 04:05:38;;;;;;;8.25;4.95;;;;;;;;;;6318476;22;20015;-90
2021/04/22 04:11:50;;;;;;;;;;;;;;;;;;;;;
2021/04/22 04:17:33;;;;;;;13.00;7.65;;;;;;;;;;6336723;22;20003;-89
2021/04/22 04:20:36;;;;;;;;;;;;;;;;;;;;;
2021/04/22 04:23:35;;;;;;;7.53;5.00;;;;;;;;;;6340412;22;20074;-90
2021/04/22 04:26:21;;;;;;;13.40;5.43;;;;;;;;;;6160735;23;20095;-89
2021/04/22 04:29:04;;;;;;;9.00;4.97;;;;;;;;;;6205876;22;20026;-89
2021/04/22 04:34:57;;;;;;;11.93;5.38;;;;;;;;;;6338054;22;20029;-88
2021/04/22 04:37:23;;;;;;;8.35;5.38;;;;;;;;;;6286677;22;20466;-88
2021/04/22 04:40:16;;;;;;;8.05;4.93;;;;;;;;;;6335755;22;20613;-88
2021/04/22 04:42:47;;;;;;;7.78;5.28;;;;;;;;;;6340367;22;20422;-89
2021/04/22 04:45:16;;;;;;;7.05;4.80;;;;;;;;;;6340801;22;20460;-88
2021/04/22 04:47:59;;;;;;;9.10;4.93;;;;;;;;;;6339832;22;19998;-88
2021/04/22 04:50:41;;;;;;;;;;;;;;;;;;;;;
2021/04/22 04:53:31;;;;;;;7.87;4.70;;;;;;;;;;6367955;22;19982;-88
2021/04/22 04:56:21;;;;;;;6.65;4.32;;;;;;;;;;6365281;22;20223;-88
2021/04/22 04:58:53;;;;;;;7.63;4.72;;;;;;;;;;6340168;22;20003;-90
2021/04/22 05:04:19;;;;;;;8.10;4.80;;;;;;;;;;6370373;22;19999;-88
2021/04/22 05:07:07;;;;;;;;;;;;;;;;;;;;;
2021/04/22 05:09:54;;;;;;;7.00;4.60;;;;;;;;;;6370174;22;20124;-89
2021/04/22 05:12:47;;;;;;;7.30;4.97;;;;;;;;;;6342740;22;20003;-88
2021/04/22 05:15:29;;;;;;;8.25;4.70;;;;;;;;;;6342667;22;20006;-88
2021/04/22 05:18:28;;;;;;;;;;;;;;;;;;;;;
2021/04/22 05:24:01;;;;;;;7.35;4.82;;;;;;;;;;6353539;22;20445;-89
2021/04/22 05:26:52;;;;;;;9.25;4.63;;;;;;;;;;6342546;22;20444;-89
2021/04/22 05:29:48;;;;;;;;;;;;;;;;;;;;;
2021/04/22 05:32:48;;;;;;;;;;;;;;;;;;;;;
2021/04/22 05:35:44;;;;;;;;;;;;;;;;;;;;;
2021/04/22 05:41:15;;;;;;;7.50;4.53;;;;;;;;;;6315237;22;20003;-89
2021/04/22 05:43:55;;;;;;;7.13;4.47;;;;;;;;;;6314209;22;20064;-92
2021/04/22 05:46:26;;;;;;;9.10;5.35;;;;;;;;;;6310644;22;19999;-89
2021/04/22 05:49:05;;;;;;;12.02;5.22;;;;;;;;;;6310355;22;20007;-88
2021/04/22 05:51:44;;;;;;;7.97;5.10;;;;;;;;;;6312820;22;20007;-88
2021/04/22 05:54:24;;;;;;;7.47;4.63;;;;;;;;;;6310263;22;20010;-88
2021/04/22 05:56:50;;;;;;;5.80;3.85;;;;;;;;;;6313544;22;20007;-89
2021/04/22 05:59:27;;;;;;;6.35;4.38;;;;;;;;;;6309757;22;20037;-89
2021/04/22 06:02:03;;;;;;;5.50;3.78;;;;;;;;;;6310481;22;20064;-89
2021/04/22 06:07:59;;;;;;;6.03;3.70;;;;;;;;;;6312937;22;20033;-89
2021/04/22 06:16:56;;;;;;;5.80;3.30;;;;;;;;;;6337736;22;20007;-91
2021/04/22 06:20:04;;;;;;;5.93;3.50;;;;;;;;;;6275208;22;20007;-91
2021/04/22 06:23:02;;;;;;;;;;;;;;;;;;;;;
2021/04/22 06:28:44;;;;;;;;;;;;;;;;;;;;;
2021/04/22 06:31:14;;;;;;;5.60;3.15;;;;;;;;;;6247800;22;20094;-90
2021/04/22 06:33:47;;;;;;;5.20;3.38;;;;;;;;;;6271920;22;20015;-90
2021/04/22 06:36:31;;;;;;;5.45;3.60;;;;;;;;;;6246546;22;20035;-91
2021/04/22 06:39:19;;;;;;;5.88;3.90;;;;;;;;;;6284226;22;20107;-89
2021/04/22 06:44:38;;;;;;;6.90;3.90;;;;;;;;;;6280899;22;20367;-87
2021/04/22 06:47:22;;;;;;;6.03;3.60;;;;;;;;;;6302219;22;20446;-88
2021/04/22 06:50:06;;;;;;;6.78;4.00;;;;;;;;;;6285765;22;20011;-90
2021/04/22 06:56:48;;;;;;;6.53;4.00;;;;;;;;;;6320005;22;20006;-89
2021/04/22 07:05:11;;;;;;;7.40;4.50;;;;;;;;;;6320114;22;20036;-89
2021/04/22 07:10:54;;;;;;;6.38;3.75;;;;;;;;;;6337645;22;20014;-91
2021/04/22 07:16:35;;;;;;;6.40;4.45;;;;;;;;;;6336662;22;20427;-90
2021/04/22 07:19:14;;;;;;;;;;;;;;;;;;;;;
2021/04/22 07:22:01;;;;;;;7.38;5.00;;;;;;;;;;6337576;22;20121;-90
2021/04/22 07:25:00;;;;;;;;;;;;;;;;;;;;;
2021/04/22 07:33:34;;;;;;;6.70;4.32;;;;;;;;;;6314113;22;20007;-90
2021/04/22 07:36:18;;;;;;;6.65;4.70;;;;;;;;;;6306101;22;20438;-90
2021/04/22 07:45:03;;;;;;;;;;;;;;;;;;;;;
2021/04/22 07:47:42;;;;;;;7.18;4.38;;;;;;;;;;6311926;22;20082;-90
2021/04/22 07:50:25;;;;;;;8.27;4.00;;;;;;;;;;6311280;22;20035;-90
2021/04/22 07:52:54;;;;;;;7.10;4.28;;;;;;;;;;6310281;22;20051;-89
2021/04/22 07:56:02;;;;;;;6.63;4.93;;;;;;;;;;6309447;22;20034;-90
2021/04/22 07:58:50;;;;;;;5.90;4.00;;;;;;;;;;6279215;22;20007;-90
2021/04/22 08:01:27;;;;;;;6.03;4.30;;;;;;;;;;6335227;22;20337;-89
2021/04/22 08:04:06;;;;;;;;;;;;;;;;;;;;;
2021/04/22 08:09:46;;;;;;;6.53;3.67;;;;;;;;;;6314445;22;20104;-89
2021/04/22 08:13:00;;;;;;;8.50;4.68;;;;;;;;;;6308571;22;20010;-91
2021/04/22 08:15:19;;;;;;;;;;;;;;;;;;;;;
2021/04/22 08:18:05;;;;;;;7.72;4.70;;;;;;;;;;6336768;22;20094;-90
2021/04/22 08:20:58;;;;;;;;;;;;;;;;;;;;;
2021/04/22 08:26:47;;;;;;;;;;;;;;;;;;;;;
2021/04/22 08:29:57;;;;;;;7.32;4.28;;;;;;;;;;6335931;22;20512;-89
2021/04/22 08:32:36;;;;;;;7.18;4.90;;;;;;;;;;6335301;22;20027;-90
2021/04/22 08:35:28;;;;;;;9.02;5.05;;;;;;;;;;6310626;22;19998;-90
2021/04/22 08:38:33;;;;;;;;;;;;;;;;;;;;;
2021/04/22 08:47:49;;;;;;;;;;;;;;;;;;;;;
2021/04/22 09:05:42;;;;;;;7.18;3.92;;;;;;;;;;6314001;22;20033;-90
2021/04/22 09:08:37;;;;;;;4.97;3.03;;;;;;;;;;6308758;22;20082;-90
2021/04/22 09:11:17;;;;;;;8.60;4.60;;;;;;;;;;6307849;22;20013;-89
2021/04/22 09:14:16;;;;;;;;;;;;;;;;;;;;;
2021/04/22 09:16:50;;;;;;;7.38;3.90;;;;;;;;;;6336518;22;20081;-91
2021/04/22 09:19:46;;;;;;;7.07;4.75;;;;;;;;;;6309017;22;20014;-90
2021/04/22 09:22:53;;;;;;;6.72;3.88;;;;;;;;;;6328847;22;20422;-90
2021/04/22 09:26:00;;;;;;;10.55;4.60;;;;;;;;;;6335015;22;20003;-90
2021/04/22 09:29:02;;;;;;;;;;;;;;;;;;;;;
2021/04/22 09:31:30;;;;;;;;;;;;;;;;;;6337185;22;20082;-90
2021/04/22 09:40:34;;;;;;;6.70;4.25;;;;;;;;;;6281101;22;20064;-90
2021/04/22 09:46:40;;;;;;;;;;;;;;;;;;;;;
2021/04/22 09:49:12;;;;;;;8.43;4.03;;;;;;;;;;6332027;22;20014;-90
2021/04/22 10:00:57;;;;;;;;;;;;;;;;;;;;;
2021/04/22 10:03:49;;;;;;;6.07;3.85;;;;;;;;;;6337927;22;20678;-90
2021/04/22 10:06:39;;;;;;;5.80;3.07;;;;;;;;;;6293407;22;20426;-90
2021/04/22 10:09:28;;;;;;;5.05;2.83;;;;;;;;;;6309384;22;20076;-90
2021/04/22 10:11:54;;;;;;;5.90;3.80;;;;;;;;;;6275895;22;20098;-90
2021/04/22 10:14:56;;;;;;;4.43;2.78;;;;;;;;;;6309879;22;20441;-89
2021/04/22 10:17:33;;;;;;;4.70;3.15;;;;;;;;;;6260014;22;20052;-90
2021/04/22 10:23:51;;;;;;;;;;;;;;;;;;;;;
2021/04/22 10:26:49;;;;;;;;;;;;;;;;;;;;;
2021/04/22 10:32:25;;;;;;;7.43;3.35;;;;;;;;;;6268364;22;20025;-90
2021/04/22 10:38:01;;;;;;;;;;;;;;;;;;;;;
2021/04/22 10:41:00;;;;;;;;;;;;;;;;;;;;;
2021/04/22 10:43:57;;;;;;;;;;;;;;;;;;;;;
2021/04/22 10:52:28;;;;;;;5.38;2.60;;;;;;;;;;6336802;22;20014;-90
2021/04/22 10:55:12;;;;;;;5.50;3.25;;;;;;;;;;6310058;22;20329;-90
2021/04/22 10:57:57;;;;;;;5.65;3.40;;;;;;;;;;6309588;22;20063;-91
2021/04/22 11:04:20;;;;;;;6.00;3.60;;;;;;;;;;6299153;22;20006;-90
2021/04/22 11:07:21;;;;;;;;;;;;;;;;;;;;;
2021/04/22 11:10:18;;;;;;;4.60;2.55;;;;;;;;;;6211946;23;20068;-90
2021/04/22 11:19:04;;;;;;;3.30;1.95;;;;;;;;;;6320559;22;20393;-90
2021/04/22 11:21:42;;;;;;;;;;;;;;;;;;;;;
2021/04/22 11:27:19;;;;;;;5.60;3.20;;;;;;;;;;6325144;22;20029;-89
2021/04/22 11:30:08;;;;;;;4.25;2.50;;;;;;;;;;6309402;22;20010;-90
2021/04/22 11:36:09;;;;;;;5.25;2.72;;;;;;;;;;6330405;22;20326;-91
2021/04/22 11:42:02;;;;;;;7.97;2.75;;;;;;;;;;6323884;22;20014;-91
2021/04/22 11:44:40;;;;;;;3.30;2.03;;;;;;;;;;6309246;22;20005;-90
2021/04/22 11:47:28;;;;;;;4.40;2.78;;;;;;;;;;6336940;22;19995;-89
2021/04/22 11:50:15;;;;;;;6.07;2.50;;;;;;;;;;6309718;22;20068;-89
2021/04/22 11:56:13;;;;;;;;;;;;;;;;;;;;;
2021/04/22 11:59:11;;;;;;;5.00;3.08;;;;;;;;;;6336021;22;20077;-90
2021/04/22 12:02:11;;;;;;;;;;;;;;;;;;;;;
2021/04/22 12:07:53;;;;;;;4.47;2.63;;;;;;;;;;6290086;22;20041;-90
2021/04/22 12:10:49;;;;;;;6.30;3.55;;;;;;;;;;6335959;22;20018;-91
2021/04/22 12:13:51;;;;;;;;;;;;;;;;;;;;;
2021/04/22 12:16:55;;;;;;;;;;;;;;;;;;;;;
2021/04/22 12:22:28;;;;;;;6.78;3.88;;;;;;;;;;6313822;22;20007;-90
2021/04/22 12:25:10;;;;;;;;;;;;;;;;;;;;;
2021/04/22 12:33:42;;;;;;;4.75;3.10;;;;;;;;;;6336206;22;20003;-90
2021/04/22 12:36:41;;;;;;;;;;;;;;;;;;;;;
2021/04/22 12:39:25;;;;;;;7.72;4.43;;;;;;;;;;6336435;22;20074;-90
2021/04/22 12:42:19;;;;;;;6.22;4.00;;;;;;;;;;6336877;22;20015;-89
2021/04/22 12:44:57;;;;;;;6.20;4.40;;;;;;;;;;6309216;22;19998;-90
2021/04/22 12:51:03;;;;;;;5.75;3.50;;;;;;;;;;6275787;22;20010;-90
2021/04/22 12:53:46;;;;;;;6.10;3.22;;;;;;;;;;6335280;22;20003;-90
2021/04/22 12:56:34;;;;;;;8.80;4.63;;;;;;;;;;6312075;22;20003;-89
2021/04/22 12:59:11;;;;;;;6.18;2.95;;;;;;;;;;6308397;22;20003;-90
2021/04/22 13:01:45;;;;;;;8.93;4.10;;;;;;;;;;6308628;22;20166;-90
2021/04/22 13:04:27;;;;;;;;;;;;;;;;;;;;;
2021/04/22 13:10:39;;;;;;;;;;;;;;;;;;;;;
2021/04/22 13:13:25;;;;;;;;;;;;;;;;;;;;;
2021/04/22 13:15:59;;;;;;;6.80;3.92;;;;;;;;;;6310710;22;20082;-90
2021/04/22 13:19:00;;;;;;;5.90;4.07;;;;;;;;;;6308067;22;19999;-90
2021/04/22 13:21:47;;;;;;;7.30;4.13;;;;;;;;;;6309961;22;20011;-90
2021/04/22 13:24:39;;;;;;;6.68;4.30;;;;;;;;;;6310568;22;20077;-90
2021/04/22 13:27:23;;;;;;;;;;;;;;;;;;;;;
2021/04/22 13:30:05;;;;;;;8.00;5.65;;;;;;;;;;6337224;22;20093;-90
2021/04/22 13:33:03;;;;;;;6.03;3.72;;;;;;;;;;6310569;22;20011;-90
2021/04/22 13:35:55;;;;;;;5.97;4.18;;;;;;;;;;6307939;22;20373;-89
2021/04/22 13:41:27;;;;;;;7.95;5.20;;;;;;;;;;6315111;22;20345;-89
2021/04/22 13:47:27;;;;;;;5.70;3.85;;;;;;;;;;6320497;22;20445;-90
2021/04/22 13:49:59;;;;;;;8.35;5.72;;;;;;;;;;6300912;22;20072;-89
2021/04/22 13:52:45;;;;;;;7.13;5.68;;;;;;;;;;6337515;22;20045;-90
2021/04/22 13:55:21;;;;;;;8.90;5.72;;;;;;;;;;6289255;22;20013;-89
2021/04/22 13:58:21;;;;;;;7.65;5.55;;;;;;;;;;6309855;22;19999;-90
2021/04/22 14:03:55;;;;;;;7.68;5.38;;;;;;;;;;6266215;22;20014;-90
2021/04/22 14:06:52;;;;;;;;;;;;;;;;;;;;;
2021/04/22 14:09:40;;;;;;;;;;;;;;;;;;;;;
2021/04/22 14:12:32;;;;;;;9.23;5.07;;;;;;;;;;6311774;22;20090;-89
2021/04/22 14:15:27;;;;;;;7.80;5.18;;;;;;;;;;6309815;22;20500;-89
2021/04/22 14:18:03;;;;;;;11.05;5.88;;;;;;;;;;6309438;22;20081;-89
2021/04/22 14:20:38;;;;;;;8.02;5.18;;;;;;;;;;6310719;22;20023;-89
2021/04/22 14:23:27;;;;;;;8.88;5.85;;;;;;;;;;6308256;22;20330;-90
2021/04/22 14:26:11;;;;;;;10.13;5.63;;;;;;;;;;6335307;22;20009;-89
2021/04/22 14:32:03;;;;;;;11.48;5.45;;;;;;;;;;6324552;22;20372;-90
2021/04/22 14:37:49;;;;;;;8.00;5.22;;;;;;;;;;6324069;22;20002;-89
2021/04/22 14:40:30;;;;;;;10.35;6.03;;;;;;;;;;6336118;22;20041;-89
2021/04/22 14:43:22;;;;;;;7.95;5.45;;;;;;;;;;6311505;22;20003;-89
2021/04/22 14:49:00;;;;;;;8.10;5.22;;;;;;;;;;6335648;22;20014;-91
2021/04/22 14:54:32;;;;;;;;;;;;;;;;;;;;;
2021/04/22 14:57:07;;;;;;;10.45;6.32;;;;;;;;;;6337202;22;20478;-89
2021/04/22 15:00:06;;;;;;;;;;;;;;;;;;;;;
2021/04/22 15:02:51;;;;;;;;;;;;;;;;;;;;;
2021/04/22 15:05:33;;;;;;;;;;;;;;;;;;;;;
2021/04/22 15:08:11;;;;;;;7.13;5.15;;;;;;;;;;6337043;22;20078;-89
2021/04/22 15:11:18;;;;;;;9.50;6.03;;;;;;;;;;6335650;22;20014;-89
2021/04/22 15:16:24;;;;;;;9.40;6.00;;;;;;;;;;6337708;22;20022;-89
2021/04/22 15:22:00;;;;;;;8.43;4.90;;;;;;;;;;6322462;22;20022;-89
2021/04/22 15:24:43;;;;;;;;;;;;;;;;;;;;;
2021/04/22 15:30:28;;;;;;;;;;;;;;;;;;;;;
2021/04/22 15:36:28;;;;;;;;;;;;;;;;;;;;;
2021/04/22 15:47:54;;;;;;;12.05;7.18;;;;;;;;;;6337112;22;20009;-90
2021/04/22 15:50:27;;;;;;;13.20;7.72;;;;;;;;;;6307663;22;20018;-88
2021/04/22 15:53:06;;;;;;;11.52;7.43;;;;;;;;;;6309168;22;20003;-89
2021/04/22 15:55:44;;;;;;;10.32;6.55;;;;;;;;;;6310325;22;19999;-89
2021/04/22 15:58:14;;;;;;;8.60;5.68;;;;;;;;;;6336204;22;20326;-89
2021/04/22 16:01:21;;;;;;;13.25;8.75;;;;;;;;;;6309511;22;20010;-89
2021/04/22 16:06:44;;;;;;;11.77;7.85;;;;;;;;;;6326060;22;20060;-91
2021/04/22 16:09:20;;;;;;;12.18;8.20;;;;;;;;;;6309729;22;20410;-90
2021/04/22 16:15:07;;;;;;;14.70;8.80;;;;;;;;;;6328197;22;20009;-89
2021/04/22 16:21:02;;;;;;;;;;;;;;;;;;;;;
2021/04/22 16:26:59;;;;;;;;;;;;;;;;;;;;;
2021/04/22 16:38:29;;;;;;;12.07;7.35;;;;;;;;;;6326047;22;20003;-89
2021/04/22 16:41:52;;;;;;;12.45;8.40;;;;;;;;;;6336022;22;20022;-89
2021/04/22 16:47:43;;;;;;;;;;;;;;;;;;;;;
2021/04/22 16:50:28;;;;;;;;;;;;;;;;;;;;;
2021/04/22 16:56:34;;;;;;;;;;;;;;;;;;;;;
2021/04/22 16:59:23;;;;;;;17.40;10.45;;;;;;;;;;6338221;22;20078;-88
2021/04/22 17:02:12;;;;;;;24.98;16.38;;;;;;;;;;6317916;22;20011;-89
2021/04/22 17:04:43;;;;;;;28.10;16.45;;;;;;;;;;6308792;22;20011;-88
2021/04/22 17:07:58;;;;;;;;;;;;;;;;;;;;;
2021/04/22 17:10:45;;;;;;;20.45;11.90;;;;;;;;;;6336883;22;20093;-88
2021/04/22 17:13:32;;;;;;;;;;;;;;;;;;;;;
2021/04/22 17:16:24;;;;;;;22.90;14.00;;;;;;;;;;6336696;22;20083;-89
2021/04/22 17:22:05;;;;;;;19.17;13.05;;;;;;;;;;6313691;22;20014;-92
2021/04/22 17:25:09;;;;;;;19.75;12.30;;;;;;;;;;6280519;22;20465;-88
2021/04/22 17:27:58;;;;;;;15.40;10.05;;;;;;;;;;6308873;22;20003;-89
2021/04/22 17:33:34;;;;;;;;;;;;;;;;;;;;;
2021/04/22 17:36:13;;;;;;;20.65;11.05;;;;;;;;;;6335183;22;20086;-91
2021/04/22 17:44:44;;;;;;;19.85;13.20;;;;;;;;;;6315631;22;20517;-90
2021/04/22 17:51:19;;;;;;;17.70;7.57;;;;;;;;;;5038938;28;20404;-44
2021/04/22 17:53:45;;;;;;;12.30;5.65;;;;;;;;;;5054808;28;20069;-44
2021/04/22 17:56:11;;;;;;;15.70;4.82;;;;;;;;;;5036660;28;20025;-45
2021/04/22 17:58:37;;;;;;;10.85;3.88;;;;;;;;;;5039133;28;20029;-43
2021/04/22 18:01:04;;;;;;;12.40;4.53;;;;;;;;;;5036564;28;20128;-42
2021/04/22 18:03:30;;;;;;;10.15;4.10;;;;;;;;;;5039175;28;20030;-48
2021/04/22 18:05:57;;;;;;;7.45;4.18;;;;;;;;;;5034791;28;20021;-48
2021/04/22 18:08:23;;;;;;;12.57;4.72;;;;;;;;;;5043721;28;20116;-51
2021/04/22 18:10:49;;;;;;;12.77;4.15;;;;;;;;;;5036527;28;20131;-46
2021/04/22 18:13:17;;;;;;;11.73;4.28;;;;;;;;;;5039162;28;20030;-53
2021/04/22 18:15:43;;;;;;;11.43;4.13;;;;;;;;;;5033483;28;20029;-54
2021/04/22 18:18:09;;;;;;;13.27;4.97;;;;;;;;;;5031537;28;20064;-55
2021/04/22 18:22:00;;;;;;;9.30;4.38;;;;;;;;;;5036446;28;20919;-44
2021/04/22 18:24:26;;;;;;;11.40;4.35;;;;;;;;;;5033875;28;20057;-47
2021/04/22 18:26:52;;;;;;;10.77;4.47;;;;;;;;;;5029438;28;20037;-46
2021/04/22 18:29:18;;;;;;;16.02;4.95;;;;;;;;;;5035847;28;20017;-53
2021/04/22 18:31:46;;;;;;;9.23;3.90;;;;;;;;;;5045581;28;20037;-43
2021/04/22 18:34:12;;;;;;;10.85;4.00;;;;;;;;;;5041748;28;20025;-42
2021/04/22 18:36:41;;;;;;;10.63;4.47;;;;;;;;;;5037105;28;20022;-44
2021/04/22 18:39:07;;;;;;;10.93;4.03;;;;;;;;;;5031209;28;20065;-45
2021/04/22 18:41:36;;;;;;;10.07;4.40;;;;;;;;;;5038348;28;20025;-45
2021/04/22 19:01:22;;;;;;;14.13;5.28;;;;;;;;;;5056738;28;20379;-41
2021/04/22 19:03:49;;;;;;;9.77;4.75;;;;;;;;;;5050192;28;20033;-42
2021/04/22 19:06:15;;;;;;;7.78;4.60;;;;;;;;;;5047343;28;20124;-42
2021/04/22 19:08:41;;;;;;;10.20;4.30;;;;;;;;;;5053554;28;20032;-42
2021/04/22 19:11:07;;;;;;;8.30;4.20;;;;;;;;;;5064432;28;20115;-42
2021/04/22 19:13:33;;;;;;;8.15;4.95;;;;;;;;;;5058648;28;20029;-42
2021/04/22 19:15:59;;;;;;;7.55;4.07;;;;;;;;;;5052387;28;20041;-43
2021/04/22 19:18:26;;;;;;;10.95;4.10;;;;;;;;;;5081791;28;20029;-41
2021/04/22 19:20:52;;;;;;;15.98;4.55;;;;;;;;;;5049640;28;20075;-42
2021/04/22 19:23:18;;;;;;;8.52;4.10;;;;;;;;;;5050727;28;20623;-41
2021/04/22 19:25:44;;;;;;;9.60;3.97;;;;;;;;;;5048509;28;20040;-42
2021/04/22 20:10:09;;;;;;;7.35;3.95;;;;;;;;;;5105833;27;20739;-46
2021/04/22 20:12:35;;;;;;;10.48;3.85;;;;;;;;;;5088534;28;20032;-48
2021/04/22 20:15:01;;;;;;;5.55;3.20;;;;;;;;;;5087483;28;20032;-47
2021/04/22 20:17:27;;;;;;;7.43;3.50;;;;;;;;;;5090698;28;20024;-45
2021/04/22 20:19:53;;;;;;;8.65;3.75;;;;;;;;;;5089251;28;20385;-45
